createdAt,value
2019-02-24T00:04:39.064Z,24.70
2019-02-24T00:09:30.757Z,24.40
2019-02-24T00:14:24.412Z,25.60
2019-02-24T00:19:18.174Z,22.30
2019-02-24T00:24:14.184Z,21.70
2019-02-24T00:29:05.630Z,21.50
2019-02-24T00:33:57.009Z,22.60
2019-02-24T00:38:48.419Z,23.60
2019-02-24T00:43:39.803Z,22.50
2019-02-24T00:48:33.410Z,19.00
2019-02-24T00:53:24.878Z,21.30
2019-02-24T00:58:16.990Z,21.20
2019-02-24T01:03:07.661Z,21.60
2019-02-24T01:07:59.068Z,21.40
2019-02-24T01:12:50.417Z,23.50
2019-02-24T01:17:44.100Z,22.50
2019-02-24T01:22:37.750Z,22.50
2019-02-24T01:27:29.229Z,23.30
2019-02-24T01:32:20.577Z,20.80
2019-02-24T01:37:12.006Z,22.30
2019-02-24T01:42:07.903Z,24.00
2019-02-24T01:46:59.355Z,26.70
2019-02-24T01:51:50.734Z,25.40
2019-02-24T01:56:42.108Z,24.60
2019-02-24T02:01:33.494Z,23.70
2019-02-24T02:06:24.873Z,26.50
2019-02-24T02:11:16.261Z,27.20
2019-02-24T02:16:09.924Z,27.70
2019-02-24T02:21:03.567Z,27.20
2019-02-24T02:25:55.011Z,29.80
2019-02-24T02:30:46.415Z,27.30
2019-02-24T02:35:37.782Z,27.80
2019-02-24T02:40:31.416Z,28.50
2019-02-24T02:45:22.830Z,29.00
2019-02-24T02:50:14.290Z,28.30
2019-02-24T02:55:05.613Z,27.80
2019-02-24T02:59:57.031Z,31.90
2019-02-24T03:04:48.391Z,30.70
2019-02-24T03:09:42.037Z,32.00
2019-02-24T03:14:35.697Z,29.30
2019-02-24T03:19:27.143Z,28.50
2019-02-24T03:24:20.735Z,27.60
2019-02-24T03:29:12.214Z,28.50
2019-02-24T03:34:05.865Z,28.80
2019-02-24T03:38:57.277Z,31.70
2019-02-24T03:43:48.679Z,29.70
2019-02-24T03:48:40.076Z,30.30
2019-02-24T03:53:31.508Z,32.70
2019-02-24T03:58:22.899Z,31.00
2019-02-24T04:03:14.297Z,30.20
2019-02-24T04:08:05.770Z,31.90
2019-02-24T04:12:59.349Z,31.60
2019-02-24T04:17:53.047Z,30.50
2019-02-24T04:22:44.506Z,30.30
2019-02-24T04:27:38.120Z,31.90
2019-02-24T04:32:31.764Z,32.50
2019-02-24T04:37:23.196Z,30.90
2019-02-24T04:42:14.647Z,30.20
2019-02-24T04:47:05.996Z,32.00
2019-02-24T04:51:59.605Z,32.60
2019-02-24T04:56:51.098Z,33.30
2019-02-24T05:01:42.470Z,33.20
2019-02-24T05:06:33.854Z,32.50
2019-02-24T05:11:25.356Z,36.80
2019-02-24T05:16:16.721Z,35.20
2019-02-24T05:21:08.027Z,37.10
2019-02-24T05:25:59.457Z,38.10
2019-02-24T05:30:50.865Z,38.40
2019-02-24T05:35:42.286Z,37.30
2019-02-24T05:40:33.634Z,36.10
2019-02-24T05:45:25.023Z,35.00
2019-02-24T05:50:16.433Z,30.60
2019-02-24T05:55:07.790Z,30.50
2019-02-24T05:59:59.246Z,30.70
2019-02-24T06:09:46.469Z,33.30
2019-02-24T06:14:37.935Z,33.50
2019-02-24T06:19:29.351Z,32.60
2019-02-24T06:24:22.916Z,31.20
2019-02-24T06:29:16.589Z,31.70
2019-02-24T06:34:10.225Z,31.80
2019-02-24T06:39:01.711Z,33.20
2019-02-24T06:43:55.346Z,31.30
2019-02-24T06:48:46.761Z,30.50
2019-02-24T06:53:38.116Z,30.30
2019-02-24T06:58:29.550Z,30.50
2019-02-24T07:03:20.965Z,30.40
2019-02-24T07:08:16.847Z,27.70
2019-02-24T07:13:10.676Z,28.70
2019-02-24T07:18:02.123Z,29.30
2019-02-24T07:22:53.481Z,28.10
2019-02-24T07:27:44.861Z,26.00
2019-02-24T07:32:36.242Z,25.20
2019-02-24T07:37:32.176Z,24.70
2019-02-24T07:42:25.846Z,24.70
2019-02-24T07:47:17.263Z,25.40
2019-02-24T07:52:08.658Z,24.10
2019-02-24T07:57:02.330Z,21.90
2019-02-24T08:01:53.801Z,20.40
2019-02-24T08:06:45.137Z,18.50
2019-02-24T08:11:38.799Z,17.50
2019-02-24T08:16:30.252Z,16.50
2019-02-24T08:21:21.651Z,16.40
2019-02-24T08:26:15.236Z,15.90
2019-02-24T08:31:08.892Z,15.00
2019-02-24T08:36:00.338Z,14.80
2019-02-24T08:40:51.731Z,14.10
2019-02-24T08:45:45.311Z,13.00
2019-02-24T08:50:39.033Z,12.30
2019-02-24T08:55:30.478Z,12.50
2019-02-24T09:00:24.166Z,11.60
2019-02-24T09:05:15.668Z,8.00
2019-02-24T09:10:07.055Z,7.30
2019-02-24T09:15:00.716Z,9.70
2019-02-24T09:19:52.185Z,5.60
2019-02-24T09:24:43.550Z,5.30
2019-02-24T09:29:37.227Z,6.30
2019-02-24T09:34:28.685Z,6.20
2019-02-24T09:39:20.119Z,2.80
2019-02-24T09:44:11.508Z,3.30
2019-02-24T09:49:05.073Z,2.70
2019-02-24T09:53:56.583Z,3.50
2019-02-24T09:58:52.541Z,4.80
2019-02-24T10:03:43.966Z,4.90
2019-02-24T10:08:35.358Z,1.70
2019-02-24T10:13:26.728Z,1.00
2019-02-24T10:18:18.149Z,1.70
2019-02-24T10:23:09.387Z,2.50
2019-02-24T10:28:00.897Z,1.00
2019-02-24T10:32:52.323Z,1.00
2019-02-24T10:37:43.651Z,1.20
2019-02-24T10:42:35.067Z,1.00
2019-02-24T10:47:28.679Z,1.00
2019-02-24T10:52:20.109Z,1.00
2019-02-24T10:57:13.524Z,2.40
2019-02-24T11:02:05.406Z,1.00
2019-02-24T11:06:56.834Z,1.00
2019-02-24T11:11:48.262Z,1.00
2019-02-24T11:16:39.641Z,1.00
2019-02-24T11:21:35.621Z,1.00
2019-02-24T11:26:27.066Z,1.00
2019-02-24T11:31:18.470Z,1.00
2019-02-24T11:36:09.846Z,1.00
2019-02-24T11:41:05.751Z,1.00
2019-02-24T11:45:59.421Z,1.00
2019-02-24T11:55:46.780Z,1.00
2019-02-24T12:00:38.175Z,1.00
2019-02-24T12:05:31.749Z,1.00
2019-02-24T12:10:25.459Z,1.00
2019-02-24T12:15:16.982Z,1.00
2019-02-24T12:20:10.589Z,1.00
2019-02-24T12:25:02.027Z,1.00
2019-02-24T12:29:53.465Z,1.00
2019-02-24T12:34:49.477Z,1.00
2019-02-24T12:39:41.024Z,1.00
2019-02-24T12:44:32.324Z,1.00
2019-02-24T12:49:23.737Z,1.00
2019-02-24T12:59:06.594Z,1.00
2019-02-24T13:04:00.178Z,1.00
2019-02-24T13:08:51.668Z,1.00
2019-02-24T13:13:43.035Z,1.00
2019-02-24T13:18:34.461Z,1.00
2019-02-24T13:23:25.856Z,1.00
2019-02-24T13:28:21.756Z,1.00
2019-02-24T13:33:13.207Z,1.00
2019-02-24T13:38:06.814Z,1.00
2019-02-24T13:42:58.296Z,1.00
2019-02-24T13:47:49.663Z,1.00
2019-02-24T13:52:41.057Z,1.00
2019-02-24T13:57:32.470Z,1.00
2019-02-24T14:02:24.843Z,1.00
2019-02-24T14:07:15.236Z,1.00
2019-02-24T14:12:06.627Z,1.00
2019-02-24T14:21:49.430Z,1.00
2019-02-24T14:26:40.792Z,1.00
2019-02-24T14:31:32.212Z,1.00
2019-02-24T14:36:23.705Z,1.00
2019-02-24T14:41:15.087Z,1.00
2019-02-24T14:46:06.458Z,1.00
2019-02-24T14:51:00.130Z,1.00
2019-02-24T14:55:51.582Z,1.00
2019-02-24T15:00:42.953Z,1.00
2019-02-24T15:05:36.598Z,1.00
2019-02-24T15:10:30.287Z,1.00
2019-02-24T15:15:21.731Z,1.00
2019-02-24T15:20:13.157Z,1.00
2019-02-24T15:25:04.508Z,1.00
2019-02-24T15:29:55.976Z,1.00
2019-02-24T15:34:49.564Z,1.00
2019-02-24T15:39:41.043Z,1.00
2019-02-24T15:44:32.413Z,1.00
2019-02-24T15:49:26.048Z,1.00
2019-02-24T15:54:19.707Z,1.00
2019-02-24T15:59:11.162Z,1.00
2019-02-24T16:04:02.576Z,1.00
2019-02-24T16:08:53.948Z,1.00
2019-02-24T16:13:47.579Z,1.00
2019-02-24T16:18:39.069Z,1.00
2019-02-24T16:28:37.759Z,1.00
2019-02-24T16:33:29.185Z,1.00
2019-02-24T16:38:20.527Z,1.00
2019-02-24T16:43:12.034Z,1.00
2019-02-24T16:48:05.617Z,1.00
2019-02-24T16:53:04.513Z,1.00
2019-02-24T16:57:55.949Z,1.00
2019-02-24T17:02:49.553Z,1.00
2019-02-24T17:07:41.044Z,2.10
2019-02-24T17:12:34.661Z,4.00
2019-02-24T17:17:26.052Z,4.80
2019-02-24T17:22:19.729Z,5.30
2019-02-24T17:27:11.211Z,6.60
2019-02-24T17:36:53.938Z,7.80
2019-02-24T17:41:45.362Z,8.20
2019-02-24T17:46:38.954Z,9.90
2019-02-24T17:51:30.435Z,10.60
2019-02-24T17:56:24.038Z,10.80
2019-02-24T18:01:15.457Z,11.10
2019-02-24T18:06:06.898Z,11.40
2019-02-24T18:10:58.311Z,9.90
2019-02-24T18:15:49.743Z,9.70
2019-02-24T18:20:43.359Z,11.60
2019-02-24T18:25:37.049Z,12.10
2019-02-24T18:30:28.655Z,12.90
2019-02-24T18:35:19.886Z,13.40
2019-02-24T18:40:15.867Z,13.90
2019-02-24T18:45:09.538Z,14.10
2019-02-24T18:50:01.091Z,13.50
2019-02-24T18:54:52.408Z,14.30
2019-02-24T18:59:45.997Z,15.70
2019-02-24T19:04:39.659Z,15.00
2019-02-24T19:09:31.158Z,15.90
2019-02-24T19:14:22.562Z,16.90
2019-02-24T19:19:13.988Z,16.80
2019-02-24T19:24:05.296Z,17.00
2019-02-24T19:28:56.780Z,18.10
2019-02-24T19:33:48.137Z,17.00
2019-02-24T19:38:39.656Z,17.50
2019-02-24T19:43:30.895Z,19.40
2019-02-24T19:48:22.375Z,19.00
2019-02-24T19:53:13.754Z,19.50
2019-02-24T20:02:58.779Z,19.70
2019-02-24T20:07:50.171Z,20.30
2019-02-24T20:12:41.549Z,20.60
2019-02-24T20:17:33.351Z,21.70
2019-02-24T20:22:24.353Z,21.00
2019-02-24T20:27:15.808Z,21.20
2019-02-24T20:32:07.127Z,22.50
2019-02-24T20:36:58.861Z,22.80
2019-02-24T20:41:52.185Z,23.80
2019-02-24T20:46:43.627Z,24.10
2019-02-24T20:51:35.049Z,22.60
2019-02-24T20:56:26.423Z,24.10
2019-02-24T21:01:20.152Z,23.80
2019-02-24T21:06:11.634Z,24.10
2019-02-24T21:11:03.081Z,25.80
2019-02-24T21:15:56.715Z,24.90
2019-02-24T21:20:48.118Z,22.90
2019-02-24T21:25:39.544Z,23.80
2019-02-24T21:30:32.341Z,23.30
2019-02-24T21:35:22.331Z,23.40
2019-02-24T21:40:13.727Z,24.30
2019-02-24T21:45:05.140Z,22.90
2019-02-24T21:49:56.560Z,23.50
2019-02-24T21:54:54.681Z,23.80
2019-02-24T21:59:48.340Z,24.80
2019-02-24T22:04:42.068Z,23.30
2019-02-24T22:09:35.810Z,24.10
2019-02-24T22:14:29.538Z,23.40
2019-02-24T22:19:20.936Z,20.80
2019-02-24T22:24:12.330Z,22.70
2019-02-24T22:29:03.809Z,23.40
2019-02-24T22:33:55.130Z,24.60
2019-02-24T22:38:46.544Z,25.00
2019-02-24T22:43:40.159Z,26.20
2019-02-24T22:48:31.580Z,25.20
2019-02-24T22:53:23.036Z,23.20
2019-02-24T22:58:14.389Z,23.10
2019-02-24T23:03:05.761Z,25.30
2019-02-24T23:07:57.190Z,25.80
2019-02-24T23:12:48.607Z,25.30
2019-02-24T23:17:42.281Z,24.60
2019-02-24T23:22:33.756Z,26.40
2019-02-24T23:27:25.164Z,25.20
2019-02-24T23:32:16.542Z,26.20
2019-02-24T23:37:10.148Z,25.50
2019-02-24T23:42:06.108Z,22.80
2019-02-24T23:46:57.567Z,23.50
2019-02-24T23:51:49.004Z,24.70
2019-02-24T23:56:42.652Z,25.50
